sensor_id;sensor_type;location;lat;lon;timestamp;P1;durP1;ratioP1;P2;durP2;ratioP2
59872;SDS011;50750;51.636;4.948;2024-02-16T00:00:56;2.00;;;1.10;;
59872;SDS011;50750;51.636;4.948;2024-02-16T00:03:35;2.20;;;1.20;;
59872;SDS011;50750;51.636;4.948;2024-02-16T00:06:03;2.60;;;1.50;;
59872;SDS011;50750;51.636;4.948;2024-02-16T00:08:32;2.40;;;1.20;;
59872;SDS011;50750;51.636;4.948;2024-02-16T00:11:04;2.60;;;1.30;;
59872;SDS011;50750;51.636;4.948;2024-02-16T00:13:33;2.30;;;1.30;;
59872;SDS011;50750;51.636;4.948;2024-02-16T00:16:01;2.30;;;1.30;;
59872;SDS011;50750;51.636;4.948;2024-02-16T00:18:29;2.80;;;1.50;;
59872;SDS011;50750;51.636;4.948;2024-02-16T00:20:56;3.70;;;1.20;;
59872;SDS011;50750;51.636;4.948;2024-02-16T00:23:24;2.20;;;1.20;;
59872;SDS011;50750;51.636;4.948;2024-02-16T00:25:52;2.60;;;1.30;;
59872;SDS011;50750;51.636;4.948;2024-02-16T00:28:19;3.50;;;1.50;;
59872;SDS011;50750;51.636;4.948;2024-02-16T00:30:47;2.10;;;1.20;;
59872;SDS011;50750;51.636;4.948;2024-02-16T00:33:15;2.20;;;1.30;;
59872;SDS011;50750;51.636;4.948;2024-02-16T00:35:45;3.20;;;1.50;;
59872;SDS011;50750;51.636;4.948;2024-02-16T00:38:15;2.60;;;1.30;;
59872;SDS011;50750;51.636;4.948;2024-02-16T00:40:43;2.60;;;1.40;;
59872;SDS011;50750;51.636;4.948;2024-02-16T00:43:10;2.50;;;1.40;;
59872;SDS011;50750;51.636;4.948;2024-02-16T00:45:38;2.50;;;1.50;;
59872;SDS011;50750;51.636;4.948;2024-02-16T00:48:07;2.30;;;1.30;;
59872;SDS011;50750;51.636;4.948;2024-02-16T00:50:35;2.60;;;1.50;;
59872;SDS011;50750;51.636;4.948;2024-02-16T00:53:03;3.20;;;1.40;;
59872;SDS011;50750;51.636;4.948;2024-02-16T00:55:31;2.40;;;1.40;;
59872;SDS011;50750;51.636;4.948;2024-02-16T00:57:58;2.30;;;1.30;;
59872;SDS011;50750;51.636;4.948;2024-02-16T01:00:26;2.50;;;1.40;;
59872;SDS011;50750;51.636;4.948;2024-02-16T01:02:54;2.70;;;1.20;;
59872;SDS011;50750;51.636;4.948;2024-02-16T01:05:21;2.90;;;1.40;;
59872;SDS011;50750;51.636;4.948;2024-02-16T01:07:49;4.20;;;1.30;;
59872;SDS011;50750;51.636;4.948;2024-02-16T01:10:18;2.40;;;1.50;;
59872;SDS011;50750;51.636;4.948;2024-02-16T01:12:45;3.10;;;1.50;;
59872;SDS011;50750;51.636;4.948;2024-02-16T01:15:13;3.00;;;1.50;;
59872;SDS011;50750;51.636;4.948;2024-02-16T01:17:41;2.50;;;1.40;;
59872;SDS011;50750;51.636;4.948;2024-02-16T01:20:10;2.90;;;1.50;;
59872;SDS011;50750;51.636;4.948;2024-02-16T01:22:39;2.60;;;1.40;;
59872;SDS011;50750;51.636;4.948;2024-02-16T01:25:08;5.40;;;1.60;;
59872;SDS011;50750;51.636;4.948;2024-02-16T01:27:35;2.50;;;1.50;;
59872;SDS011;50750;51.636;4.948;2024-02-16T01:30:04;2.90;;;1.50;;
59872;SDS011;50750;51.636;4.948;2024-02-16T01:32:33;2.80;;;1.50;;
59872;SDS011;50750;51.636;4.948;2024-02-16T01:35:01;2.50;;;1.30;;
59872;SDS011;50750;51.636;4.948;2024-02-16T01:37:29;3.70;;;1.70;;
59872;SDS011;50750;51.636;4.948;2024-02-16T01:39:56;3.40;;;1.40;;
59872;SDS011;50750;51.636;4.948;2024-02-16T01:42:24;2.90;;;1.50;;
59872;SDS011;50750;51.636;4.948;2024-02-16T01:44:52;2.90;;;1.60;;
59872;SDS011;50750;51.636;4.948;2024-02-16T01:47:20;2.60;;;1.40;;
59872;SDS011;50750;51.636;4.948;2024-02-16T01:49:47;2.50;;;1.30;;
59872;SDS011;50750;51.636;4.948;2024-02-16T01:52:16;2.10;;;1.20;;
59872;SDS011;50750;51.636;4.948;2024-02-16T01:54:43;4.20;;;1.40;;
59872;SDS011;50750;51.636;4.948;2024-02-16T01:57:11;3.10;;;1.50;;
59872;SDS011;50750;51.636;4.948;2024-02-16T01:59:39;3.40;;;1.40;;
59872;SDS011;50750;51.636;4.948;2024-02-16T02:02:07;2.40;;;1.40;;
59872;SDS011;50750;51.636;4.948;2024-02-16T02:04:34;3.40;;;1.60;;
59872;SDS011;50750;51.636;4.948;2024-02-16T02:07:11;3.10;;;1.20;;
59872;SDS011;50750;51.636;4.948;2024-02-16T02:09:39;2.80;;;1.60;;
59872;SDS011;50750;51.636;4.948;2024-02-16T02:12:07;2.70;;;1.60;;
59872;SDS011;50750;51.636;4.948;2024-02-16T02:14:36;2.90;;;1.60;;
59872;SDS011;50750;51.636;4.948;2024-02-16T02:17:04;2.70;;;1.50;;
59872;SDS011;50750;51.636;4.948;2024-02-16T02:19:32;2.30;;;1.50;;
59872;SDS011;50750;51.636;4.948;2024-02-16T02:22:00;2.50;;;1.60;;
59872;SDS011;50750;51.636;4.948;2024-02-16T02:24:27;2.30;;;1.40;;
59872;SDS011;50750;51.636;4.948;2024-02-16T02:26:55;3.20;;;1.50;;
59872;SDS011;50750;51.636;4.948;2024-02-16T02:29:23;2.70;;;1.60;;
59872;SDS011;50750;51.636;4.948;2024-02-16T02:31:51;3.00;;;1.30;;
59872;SDS011;50750;51.636;4.948;2024-02-16T02:34:19;3.90;;;1.70;;
59872;SDS011;50750;51.636;4.948;2024-02-16T02:36:46;2.50;;;1.40;;
59872;SDS011;50750;51.636;4.948;2024-02-16T02:39:15;2.50;;;1.50;;
59872;SDS011;50750;51.636;4.948;2024-02-16T02:41:42;2.40;;;1.40;;
59872;SDS011;50750;51.636;4.948;2024-02-16T02:44:10;3.20;;;1.50;;
59872;SDS011;50750;51.636;4.948;2024-02-16T02:46:38;2.50;;;1.30;;
59872;SDS011;50750;51.636;4.948;2024-02-16T02:49:05;2.50;;;1.50;;
59872;SDS011;50750;51.636;4.948;2024-02-16T02:51:34;2.80;;;1.60;;
59872;SDS011;50750;51.636;4.948;2024-02-16T02:54:02;2.50;;;1.30;;
59872;SDS011;50750;51.636;4.948;2024-02-16T02:56:30;2.60;;;1.60;;
59872;SDS011;50750;51.636;4.948;2024-02-16T02:58:58;2.90;;;1.30;;
59872;SDS011;50750;51.636;4.948;2024-02-16T03:01:26;2.50;;;1.60;;
59872;SDS011;50750;51.636;4.948;2024-02-16T03:03:53;2.60;;;1.50;;
59872;SDS011;50750;51.636;4.948;2024-02-16T03:06:21;2.40;;;1.30;;
59872;SDS011;50750;51.636;4.948;2024-02-16T03:08:49;3.50;;;1.50;;
59872;SDS011;50750;51.636;4.948;2024-02-16T03:11:17;2.40;;;1.20;;
59872;SDS011;50750;51.636;4.948;2024-02-16T03:13:45;2.60;;;1.50;;
59872;SDS011;50750;51.636;4.948;2024-02-16T03:16:13;3.80;;;1.50;;
59872;SDS011;50750;51.636;4.948;2024-02-16T03:18:40;3.60;;;1.60;;
59872;SDS011;50750;51.636;4.948;2024-02-16T03:21:12;2.30;;;1.50;;
59872;SDS011;50750;51.636;4.948;2024-02-16T03:23:42;3.10;;;1.40;;
59872;SDS011;50750;51.636;4.948;2024-02-16T03:26:16;3.00;;;1.60;;
59872;SDS011;50750;51.636;4.948;2024-02-16T03:28:45;3.70;;;1.50;;
59872;SDS011;50750;51.636;4.948;2024-02-16T03:31:17;2.30;;;1.30;;
59872;SDS011;50750;51.636;4.948;2024-02-16T03:33:46;3.30;;;1.30;;
59872;SDS011;50750;51.636;4.948;2024-02-16T03:36:14;2.70;;;1.40;;
59872;SDS011;50750;51.636;4.948;2024-02-16T03:38:42;3.00;;;1.60;;
59872;SDS011;50750;51.636;4.948;2024-02-16T03:41:12;3.10;;;1.50;;
59872;SDS011;50750;51.636;4.948;2024-02-16T03:43:40;2.70;;;1.60;;
59872;SDS011;50750;51.636;4.948;2024-02-16T03:46:09;2.60;;;1.40;;
59872;SDS011;50750;51.636;4.948;2024-02-16T03:48:37;3.80;;;1.60;;
59872;SDS011;50750;51.636;4.948;2024-02-16T03:51:06;2.90;;;1.30;;
59872;SDS011;50750;51.636;4.948;2024-02-16T03:53:34;2.20;;;1.30;;
59872;SDS011;50750;51.636;4.948;2024-02-16T03:56:02;3.00;;;1.40;;
59872;SDS011;50750;51.636;4.948;2024-02-16T03:58:32;2.00;;;1.30;;
59872;SDS011;50750;51.636;4.948;2024-02-16T04:00:59;2.80;;;1.60;;
59872;SDS011;50750;51.636;4.948;2024-02-16T04:03:27;2.80;;;1.40;;
59872;SDS011;50750;51.636;4.948;2024-02-16T04:05:55;2.40;;;1.50;;
59872;SDS011;50750;51.636;4.948;2024-02-16T04:08:22;2.50;;;1.50;;
59872;SDS011;50750;51.636;4.948;2024-02-16T04:10:50;2.40;;;1.60;;
59872;SDS011;50750;51.636;4.948;2024-02-16T04:13:18;2.80;;;1.60;;
59872;SDS011;50750;51.636;4.948;2024-02-16T04:15:45;2.30;;;1.20;;
59872;SDS011;50750;51.636;4.948;2024-02-16T04:18:13;2.10;;;1.30;;
59872;SDS011;50750;51.636;4.948;2024-02-16T04:20:41;2.80;;;1.60;;
59872;SDS011;50750;51.636;4.948;2024-02-16T04:23:08;2.90;;;1.30;;
59872;SDS011;50750;51.636;4.948;2024-02-16T04:25:36;3.80;;;1.60;;
59872;SDS011;50750;51.636;4.948;2024-02-16T04:28:05;2.60;;;1.40;;
59872;SDS011;50750;51.636;4.948;2024-02-16T04:30:33;2.50;;;1.50;;
59872;SDS011;50750;51.636;4.948;2024-02-16T04:33:01;3.20;;;1.70;;
59872;SDS011;50750;51.636;4.948;2024-02-16T04:35:30;3.00;;;1.40;;
59872;SDS011;50750;51.636;4.948;2024-02-16T04:37:58;3.40;;;1.50;;
59872;SDS011;50750;51.636;4.948;2024-02-16T04:40:26;2.70;;;1.40;;
59872;SDS011;50750;51.636;4.948;2024-02-16T04:42:54;3.30;;;1.70;;
59872;SDS011;50750;51.636;4.948;2024-02-16T04:45:21;3.00;;;1.70;;
59872;SDS011;50750;51.636;4.948;2024-02-16T04:47:49;3.20;;;1.70;;
59872;SDS011;50750;51.636;4.948;2024-02-16T04:50:16;2.60;;;1.50;;
59872;SDS011;50750;51.636;4.948;2024-02-16T04:52:44;3.00;;;1.60;;
59872;SDS011;50750;51.636;4.948;2024-02-16T04:55:12;2.80;;;1.70;;
59872;SDS011;50750;51.636;4.948;2024-02-16T04:57:40;2.90;;;1.70;;
59872;SDS011;50750;51.636;4.948;2024-02-16T05:00:09;3.10;;;1.70;;
59872;SDS011;50750;51.636;4.948;2024-02-16T05:02:38;3.20;;;1.90;;
59872;SDS011;50750;51.636;4.948;2024-02-16T05:05:06;3.70;;;1.60;;
59872;SDS011;50750;51.636;4.948;2024-02-16T05:07:35;3.00;;;1.70;;
59872;SDS011;50750;51.636;4.948;2024-02-16T05:10:03;2.70;;;1.70;;
59872;SDS011;50750;51.636;4.948;2024-02-16T05:12:35;2.50;;;1.50;;
59872;SDS011;50750;51.636;4.948;2024-02-16T05:15:04;3.10;;;1.70;;
59872;SDS011;50750;51.636;4.948;2024-02-16T05:17:32;2.70;;;1.70;;
59872;SDS011;50750;51.636;4.948;2024-02-16T05:20:00;3.30;;;1.80;;
59872;SDS011;50750;51.636;4.948;2024-02-16T05:22:27;3.70;;;1.90;;
59872;SDS011;50750;51.636;4.948;2024-02-16T05:24:56;3.70;;;1.70;;
59872;SDS011;50750;51.636;4.948;2024-02-16T05:27:23;2.70;;;1.80;;
59872;SDS011;50750;51.636;4.948;2024-02-16T05:29:51;3.10;;;2.00;;
59872;SDS011;50750;51.636;4.948;2024-02-16T05:32:18;3.10;;;1.50;;
59872;SDS011;50750;51.636;4.948;2024-02-16T05:34:46;2.70;;;1.50;;
59872;SDS011;50750;51.636;4.948;2024-02-16T05:37:14;2.80;;;1.70;;
59872;SDS011;50750;51.636;4.948;2024-02-16T05:39:41;3.90;;;1.70;;
59872;SDS011;50750;51.636;4.948;2024-02-16T05:42:20;3.20;;;1.60;;
59872;SDS011;50750;51.636;4.948;2024-02-16T05:44:48;3.30;;;1.80;;
59872;SDS011;50750;51.636;4.948;2024-02-16T05:47:17;4.30;;;2.20;;
59872;SDS011;50750;51.636;4.948;2024-02-16T05:49:45;3.90;;;1.80;;
59872;SDS011;50750;51.636;4.948;2024-02-16T05:52:13;3.00;;;1.80;;
59872;SDS011;50750;51.636;4.948;2024-02-16T05:54:46;2.40;;;1.60;;
59872;SDS011;50750;51.636;4.948;2024-02-16T05:57:15;2.80;;;1.70;;
59872;SDS011;50750;51.636;4.948;2024-02-16T05:59:44;4.10;;;1.70;;
59872;SDS011;50750;51.636;4.948;2024-02-16T06:02:12;3.50;;;1.80;;
59872;SDS011;50750;51.636;4.948;2024-02-16T06:04:41;3.20;;;1.80;;
59872;SDS011;50750;51.636;4.948;2024-02-16T06:07:08;4.60;;;1.70;;
59872;SDS011;50750;51.636;4.948;2024-02-16T06:09:37;2.60;;;1.50;;
59872;SDS011;50750;51.636;4.948;2024-02-16T06:12:05;4.30;;;1.80;;
59872;SDS011;50750;51.636;4.948;2024-02-16T06:14:35;3.10;;;1.90;;
59872;SDS011;50750;51.636;4.948;2024-02-16T06:17:03;3.30;;;1.80;;
59872;SDS011;50750;51.636;4.948;2024-02-16T06:19:31;3.00;;;1.80;;
59872;SDS011;50750;51.636;4.948;2024-02-16T06:21:59;2.60;;;1.60;;
59872;SDS011;50750;51.636;4.948;2024-02-16T06:24:27;3.80;;;1.60;;
59872;SDS011;50750;51.636;4.948;2024-02-16T06:26:54;3.80;;;1.80;;
59872;SDS011;50750;51.636;4.948;2024-02-16T06:29:22;3.40;;;1.90;;
59872;SDS011;50750;51.636;4.948;2024-02-16T06:31:50;3.10;;;1.90;;
59872;SDS011;50750;51.636;4.948;2024-02-16T06:34:18;3.70;;;1.80;;
59872;SDS011;50750;51.636;4.948;2024-02-16T06:36:46;3.20;;;1.70;;
59872;SDS011;50750;51.636;4.948;2024-02-16T06:39:14;3.10;;;1.70;;
59872;SDS011;50750;51.636;4.948;2024-02-16T06:41:44;3.80;;;1.90;;
59872;SDS011;50750;51.636;4.948;2024-02-16T06:44:12;3.30;;;2.10;;
59872;SDS011;50750;51.636;4.948;2024-02-16T06:46:40;3.30;;;1.70;;
59872;SDS011;50750;51.636;4.948;2024-02-16T06:49:08;3.30;;;1.80;;
59872;SDS011;50750;51.636;4.948;2024-02-16T06:51:36;3.20;;;1.70;;
59872;SDS011;50750;51.636;4.948;2024-02-16T06:54:04;3.50;;;1.80;;
59872;SDS011;50750;51.636;4.948;2024-02-16T06:56:33;2.90;;;1.70;;
59872;SDS011;50750;51.636;4.948;2024-02-16T06:59:02;3.10;;;1.80;;
59872;SDS011;50750;51.636;4.948;2024-02-16T07:01:29;3.60;;;1.80;;
59872;SDS011;50750;51.636;4.948;2024-02-16T07:03:57;4.50;;;1.90;;
59872;SDS011;50750;51.636;4.948;2024-02-16T07:06:25;4.10;;;2.10;;
59872;SDS011;50750;51.636;4.948;2024-02-16T07:08:52;3.20;;;1.80;;
59872;SDS011;50750;51.636;4.948;2024-02-16T07:11:20;5.80;;;2.00;;
59872;SDS011;50750;51.636;4.948;2024-02-16T07:13:48;3.60;;;1.80;;
59872;SDS011;50750;51.636;4.948;2024-02-16T07:16:15;3.50;;;2.00;;
59872;SDS011;50750;51.636;4.948;2024-02-16T07:18:44;3.50;;;2.00;;
59872;SDS011;50750;51.636;4.948;2024-02-16T07:21:12;3.70;;;1.70;;
59872;SDS011;50750;51.636;4.948;2024-02-16T07:23:39;3.40;;;2.10;;
59872;SDS011;50750;51.636;4.948;2024-02-16T07:26:07;4.70;;;2.00;;
59872;SDS011;50750;51.636;4.948;2024-02-16T07:28:35;3.00;;;1.70;;
59872;SDS011;50750;51.636;4.948;2024-02-16T07:31:02;4.50;;;2.10;;
59872;SDS011;50750;51.636;4.948;2024-02-16T07:33:30;3.10;;;1.80;;
59872;SDS011;50750;51.636;4.948;2024-02-16T07:35:58;5.00;;;1.90;;
59872;SDS011;50750;51.636;4.948;2024-02-16T07:38:26;4.00;;;2.20;;
59872;SDS011;50750;51.636;4.948;2024-02-16T07:40:55;3.40;;;2.10;;
59872;SDS011;50750;51.636;4.948;2024-02-16T07:43:23;3.30;;;1.90;;
59872;SDS011;50750;51.636;4.948;2024-02-16T07:45:51;4.90;;;2.00;;
59872;SDS011;50750;51.636;4.948;2024-02-16T07:48:20;4.50;;;2.20;;
59872;SDS011;50750;51.636;4.948;2024-02-16T07:50:48;6.10;;;2.20;;
59872;SDS011;50750;51.636;4.948;2024-02-16T07:53:16;3.70;;;2.00;;
59872;SDS011;50750;51.636;4.948;2024-02-16T07:55:44;3.10;;;1.90;;
59872;SDS011;50750;51.636;4.948;2024-02-16T07:58:12;3.40;;;1.80;;
59872;SDS011;50750;51.636;4.948;2024-02-16T08:00:39;4.30;;;2.00;;
59872;SDS011;50750;51.636;4.948;2024-02-16T08:03:07;5.00;;;2.00;;
59872;SDS011;50750;51.636;4.948;2024-02-16T08:05:35;5.50;;;2.50;;
59872;SDS011;50750;51.636;4.948;2024-02-16T08:08:02;3.20;;;1.90;;
59872;SDS011;50750;51.636;4.948;2024-02-16T08:10:31;4.00;;;2.10;;
59872;SDS011;50750;51.636;4.948;2024-02-16T08:12:59;6.40;;;2.20;;
59872;SDS011;50750;51.636;4.948;2024-02-16T08:15:27;4.30;;;2.10;;
59872;SDS011;50750;51.636;4.948;2024-02-16T08:17:55;4.30;;;2.40;;
59872;SDS011;50750;51.636;4.948;2024-02-16T08:20:23;4.50;;;2.20;;
59872;SDS011;50750;51.636;4.948;2024-02-16T08:22:51;5.00;;;2.10;;
59872;SDS011;50750;51.636;4.948;2024-02-16T08:25:18;4.70;;;2.10;;
59872;SDS011;50750;51.636;4.948;2024-02-16T08:27:46;3.30;;;2.00;;
59872;SDS011;50750;51.636;4.948;2024-02-16T08:30:15;4.10;;;2.00;;
59872;SDS011;50750;51.636;4.948;2024-02-16T08:32:43;4.00;;;2.20;;
59872;SDS011;50750;51.636;4.948;2024-02-16T08:35:11;3.40;;;2.00;;
59872;SDS011;50750;51.636;4.948;2024-02-16T08:37:40;4.20;;;2.20;;
59872;SDS011;50750;51.636;4.948;2024-02-16T08:40:09;3.50;;;2.20;;
59872;SDS011;50750;51.636;4.948;2024-02-16T08:42:40;3.50;;;2.00;;
59872;SDS011;50750;51.636;4.948;2024-02-16T08:45:08;3.30;;;2.20;;
59872;SDS011;50750;51.636;4.948;2024-02-16T08:47:38;3.10;;;1.80;;
59872;SDS011;50750;51.636;4.948;2024-02-16T08:50:07;2.90;;;1.80;;
59872;SDS011;50750;51.636;4.948;2024-02-16T08:52:36;5.00;;;2.10;;
59872;SDS011;50750;51.636;4.948;2024-02-16T08:55:05;3.30;;;2.10;;
59872;SDS011;50750;51.636;4.948;2024-02-16T08:57:34;3.60;;;2.10;;
59872;SDS011;50750;51.636;4.948;2024-02-16T09:00:02;4.10;;;2.00;;
59872;SDS011;50750;51.636;4.948;2024-02-16T09:04:58;6.10;;;2.10;;
59872;SDS011;50750;51.636;4.948;2024-02-16T09:07:25;4.00;;;2.20;;
59872;SDS011;50750;51.636;4.948;2024-02-16T09:09:53;3.40;;;1.90;;
59872;SDS011;50750;51.636;4.948;2024-02-16T09:12:22;3.40;;;2.20;;
59872;SDS011;50750;51.636;4.948;2024-02-16T09:14:50;3.40;;;2.00;;
59872;SDS011;50750;51.636;4.948;2024-02-16T09:17:17;3.80;;;2.10;;
59872;SDS011;50750;51.636;4.948;2024-02-16T09:19:46;3.60;;;1.70;;
59872;SDS011;50750;51.636;4.948;2024-02-16T09:22:14;4.00;;;2.10;;
59872;SDS011;50750;51.636;4.948;2024-02-16T09:24:42;3.20;;;1.90;;
59872;SDS011;50750;51.636;4.948;2024-02-16T09:27:13;3.30;;;2.00;;
59872;SDS011;50750;51.636;4.948;2024-02-16T09:29:40;3.50;;;2.00;;
59872;SDS011;50750;51.636;4.948;2024-02-16T09:32:08;3.00;;;1.80;;
59872;SDS011;50750;51.636;4.948;2024-02-16T09:34:36;3.50;;;2.00;;
59872;SDS011;50750;51.636;4.948;2024-02-16T09:37:04;4.20;;;1.80;;
59872;SDS011;50750;51.636;4.948;2024-02-16T09:39:32;3.70;;;2.00;;
59872;SDS011;50750;51.636;4.948;2024-02-16T09:42:00;4.30;;;2.00;;
59872;SDS011;50750;51.636;4.948;2024-02-16T09:44:28;4.30;;;2.20;;
59872;SDS011;50750;51.636;4.948;2024-02-16T09:46:58;3.40;;;2.00;;
59872;SDS011;50750;51.636;4.948;2024-02-16T09:51:55;4.70;;;2.10;;
59872;SDS011;50750;51.636;4.948;2024-02-16T09:54:29;3.10;;;1.80;;
59872;SDS011;50750;51.636;4.948;2024-02-16T09:56:58;4.90;;;2.10;;
59872;SDS011;50750;51.636;4.948;2024-02-16T09:59:26;4.40;;;2.00;;
59872;SDS011;50750;51.636;4.948;2024-02-16T10:01:59;4.50;;;2.20;;
59872;SDS011;50750;51.636;4.948;2024-02-16T10:04:28;3.40;;;2.20;;
59872;SDS011;50750;51.636;4.948;2024-02-16T10:06:55;4.40;;;2.00;;
59872;SDS011;50750;51.636;4.948;2024-02-16T10:09:25;4.40;;;2.30;;
59872;SDS011;50750;51.636;4.948;2024-02-16T10:11:53;4.50;;;2.10;;
59872;SDS011;50750;51.636;4.948;2024-02-16T10:14:21;4.00;;;2.10;;
59872;SDS011;50750;51.636;4.948;2024-02-16T10:16:58;4.30;;;2.90;;
59872;SDS011;50750;51.636;4.948;2024-02-16T10:19:26;3.90;;;1.80;;
59872;SDS011;50750;51.636;4.948;2024-02-16T10:21:54;4.10;;;2.00;;
59872;SDS011;50750;51.636;4.948;2024-02-16T10:24:31;3.70;;;2.10;;
59872;SDS011;50750;51.636;4.948;2024-02-16T10:26:59;4.70;;;2.30;;
59872;SDS011;50750;51.636;4.948;2024-02-16T10:29:26;4.80;;;2.50;;
59872;SDS011;50750;51.636;4.948;2024-02-16T10:31:54;3.60;;;2.10;;
59872;SDS011;50750;51.636;4.948;2024-02-16T10:34:22;3.90;;;2.30;;
59872;SDS011;50750;51.636;4.948;2024-02-16T10:36:52;5.50;;;2.60;;
59872;SDS011;50750;51.636;4.948;2024-02-16T10:39:20;5.30;;;2.60;;
59872;SDS011;50750;51.636;4.948;2024-02-16T10:41:50;5.20;;;2.40;;
59872;SDS011;50750;51.636;4.948;2024-02-16T10:44:18;3.80;;;2.40;;
59872;SDS011;50750;51.636;4.948;2024-02-16T10:46:46;3.50;;;2.20;;
59872;SDS011;50750;51.636;4.948;2024-02-16T10:49:15;4.60;;;2.40;;
59872;SDS011;50750;51.636;4.948;2024-02-16T10:51:43;4.70;;;2.30;;
59872;SDS011;50750;51.636;4.948;2024-02-16T10:54:15;4.60;;;2.40;;
59872;SDS011;50750;51.636;4.948;2024-02-16T10:56:45;5.50;;;3.00;;
59872;SDS011;50750;51.636;4.948;2024-02-16T10:59:13;6.50;;;2.90;;
59872;SDS011;50750;51.636;4.948;2024-02-16T11:01:44;5.50;;;2.70;;
59872;SDS011;50750;51.636;4.948;2024-02-16T11:04:13;4.50;;;2.50;;
59872;SDS011;50750;51.636;4.948;2024-02-16T11:06:46;5.70;;;2.90;;
59872;SDS011;50750;51.636;4.948;2024-02-16T11:12:01;4.70;;;2.60;;
59872;SDS011;50750;51.636;4.948;2024-02-16T11:14:36;5.20;;;3.00;;
59872;SDS011;50750;51.636;4.948;2024-02-16T11:17:09;5.70;;;2.70;;
59872;SDS011;50750;51.636;4.948;2024-02-16T11:19:37;4.40;;;2.80;;
59872;SDS011;50750;51.636;4.948;2024-02-16T11:22:06;4.00;;;3.00;;
59872;SDS011;50750;51.636;4.948;2024-02-16T11:24:35;4.80;;;2.80;;
59872;SDS011;50750;51.636;4.948;2024-02-16T11:27:04;5.20;;;3.20;;
59872;SDS011;50750;51.636;4.948;2024-02-16T11:29:34;4.80;;;2.90;;
59872;SDS011;50750;51.636;4.948;2024-02-16T11:32:03;4.40;;;2.50;;
59872;SDS011;50750;51.636;4.948;2024-02-16T11:34:32;3.90;;;2.40;;
59872;SDS011;50750;51.636;4.948;2024-02-16T11:37:01;5.40;;;2.90;;
59872;SDS011;50750;51.636;4.948;2024-02-16T11:39:29;4.60;;;2.70;;
59872;SDS011;50750;51.636;4.948;2024-02-16T11:42:01;5.70;;;3.00;;
59872;SDS011;50750;51.636;4.948;2024-02-16T11:44:30;4.10;;;2.70;;
59872;SDS011;50750;51.636;4.948;2024-02-16T11:46:59;4.10;;;2.70;;
59872;SDS011;50750;51.636;4.948;2024-02-16T11:49:28;4.20;;;2.70;;
59872;SDS011;50750;51.636;4.948;2024-02-16T11:51:58;4.00;;;2.50;;
59872;SDS011;50750;51.636;4.948;2024-02-16T11:54:27;4.70;;;2.60;;
59872;SDS011;50750;51.636;4.948;2024-02-16T11:56:56;4.40;;;2.80;;
59872;SDS011;50750;51.636;4.948;2024-02-16T11:59:23;3.90;;;2.60;;
59872;SDS011;50750;51.636;4.948;2024-02-16T12:01:52;4.20;;;2.50;;
59872;SDS011;50750;51.636;4.948;2024-02-16T12:04:21;5.20;;;3.10;;
59872;SDS011;50750;51.636;4.948;2024-02-16T12:06:51;4.00;;;2.50;;
59872;SDS011;50750;51.636;4.948;2024-02-16T12:09:20;4.20;;;2.60;;
59872;SDS011;50750;51.636;4.948;2024-02-16T12:11:48;3.80;;;2.50;;
59872;SDS011;50750;51.636;4.948;2024-02-16T12:14:16;4.30;;;2.50;;
59872;SDS011;50750;51.636;4.948;2024-02-16T12:16:47;3.90;;;2.60;;
59872;SDS011;50750;51.636;4.948;2024-02-16T12:19:15;4.90;;;2.30;;
59872;SDS011;50750;51.636;4.948;2024-02-16T12:21:43;3.50;;;2.40;;
59872;SDS011;50750;51.636;4.948;2024-02-16T12:24:10;4.10;;;2.50;;
59872;SDS011;50750;51.636;4.948;2024-02-16T12:26:38;4.10;;;2.60;;
59872;SDS011;50750;51.636;4.948;2024-02-16T12:29:07;4.30;;;2.50;;
59872;SDS011;50750;51.636;4.948;2024-02-16T12:31:38;4.20;;;2.80;;
59872;SDS011;50750;51.636;4.948;2024-02-16T12:34:07;4.20;;;2.60;;
59872;SDS011;50750;51.636;4.948;2024-02-16T12:36:35;3.80;;;2.70;;
59872;SDS011;50750;51.636;4.948;2024-02-16T12:39:03;4.00;;;2.80;;
59872;SDS011;50750;51.636;4.948;2024-02-16T12:41:32;4.00;;;2.70;;
59872;SDS011;50750;51.636;4.948;2024-02-16T12:44:00;3.70;;;2.40;;
59872;SDS011;50750;51.636;4.948;2024-02-16T12:46:28;3.60;;;2.70;;
59872;SDS011;50750;51.636;4.948;2024-02-16T12:48:55;3.90;;;2.30;;
59872;SDS011;50750;51.636;4.948;2024-02-16T12:51:23;3.10;;;2.40;;
59872;SDS011;50750;51.636;4.948;2024-02-16T12:53:51;3.90;;;2.50;;
59872;SDS011;50750;51.636;4.948;2024-02-16T12:56:18;3.40;;;2.50;;
59872;SDS011;50750;51.636;4.948;2024-02-16T12:58:47;3.70;;;2.70;;
59872;SDS011;50750;51.636;4.948;2024-02-16T13:01:15;3.60;;;2.60;;
59872;SDS011;50750;51.636;4.948;2024-02-16T13:03:44;4.50;;;2.70;;
59872;SDS011;50750;51.636;4.948;2024-02-16T13:06:12;3.90;;;2.50;;
59872;SDS011;50750;51.636;4.948;2024-02-16T13:08:39;3.90;;;2.30;;
59872;SDS011;50750;51.636;4.948;2024-02-16T13:11:07;3.60;;;2.30;;
59872;SDS011;50750;51.636;4.948;2024-02-16T13:13:35;4.10;;;2.70;;
59872;SDS011;50750;51.636;4.948;2024-02-16T13:16:03;3.90;;;2.60;;
59872;SDS011;50750;51.636;4.948;2024-02-16T13:18:31;3.50;;;2.40;;
59872;SDS011;50750;51.636;4.948;2024-02-16T13:20:59;3.30;;;2.40;;
59872;SDS011;50750;51.636;4.948;2024-02-16T13:23:26;3.40;;;2.30;;
59872;SDS011;50750;51.636;4.948;2024-02-16T13:25:55;3.60;;;2.20;;
59872;SDS011;50750;51.636;4.948;2024-02-16T13:28:23;3.80;;;2.30;;
59872;SDS011;50750;51.636;4.948;2024-02-16T13:30:50;3.70;;;2.20;;
59872;SDS011;50750;51.636;4.948;2024-02-16T13:33:18;3.70;;;2.30;;
59872;SDS011;50750;51.636;4.948;2024-02-16T13:35:46;3.10;;;2.30;;
59872;SDS011;50750;51.636;4.948;2024-02-16T13:38:14;3.70;;;2.40;;
59872;SDS011;50750;51.636;4.948;2024-02-16T13:40:48;4.30;;;2.60;;
59872;SDS011;50750;51.636;4.948;2024-02-16T13:43:16;3.60;;;2.30;;
59872;SDS011;50750;51.636;4.948;2024-02-16T13:45:50;3.40;;;2.20;;
59872;SDS011;50750;51.636;4.948;2024-02-16T13:48:19;3.20;;;2.20;;
59872;SDS011;50750;51.636;4.948;2024-02-16T13:50:48;3.30;;;2.20;;
59872;SDS011;50750;51.636;4.948;2024-02-16T13:53:16;3.50;;;2.40;;
59872;SDS011;50750;51.636;4.948;2024-02-16T13:55:44;2.90;;;2.00;;
59872;SDS011;50750;51.636;4.948;2024-02-16T13:58:12;3.40;;;2.30;;
59872;SDS011;50750;51.636;4.948;2024-02-16T14:00:39;4.50;;;2.40;;
59872;SDS011;50750;51.636;4.948;2024-02-16T14:03:08;3.20;;;2.20;;
59872;SDS011;50750;51.636;4.948;2024-02-16T14:05:36;4.20;;;2.30;;
59872;SDS011;50750;51.636;4.948;2024-02-16T14:08:05;3.30;;;2.30;;
59872;SDS011;50750;51.636;4.948;2024-02-16T14:10:35;3.10;;;1.90;;
59872;SDS011;50750;51.636;4.948;2024-02-16T14:13:03;3.10;;;1.90;;
59872;SDS011;50750;51.636;4.948;2024-02-16T14:15:31;3.40;;;2.30;;
59872;SDS011;50750;51.636;4.948;2024-02-16T14:17:59;3.60;;;2.00;;
59872;SDS011;50750;51.636;4.948;2024-02-16T14:20:27;3.20;;;2.20;;
59872;SDS011;50750;51.636;4.948;2024-02-16T14:22:56;3.10;;;1.90;;
59872;SDS011;50750;51.636;4.948;2024-02-16T14:25:23;3.00;;;2.00;;
59872;SDS011;50750;51.636;4.948;2024-02-16T14:27:52;3.00;;;2.10;;
59872;SDS011;50750;51.636;4.948;2024-02-16T14:30:19;3.40;;;2.30;;
59872;SDS011;50750;51.636;4.948;2024-02-16T14:32:47;3.20;;;2.00;;
59872;SDS011;50750;51.636;4.948;2024-02-16T14:35:15;3.00;;;1.80;;
59872;SDS011;50750;51.636;4.948;2024-02-16T14:37:42;2.50;;;1.60;;
59872;SDS011;50750;51.636;4.948;2024-02-16T14:40:11;2.30;;;1.50;;
59872;SDS011;50750;51.636;4.948;2024-02-16T14:42:39;3.10;;;2.20;;
59872;SDS011;50750;51.636;4.948;2024-02-16T14:45:08;3.50;;;2.30;;
59872;SDS011;50750;51.636;4.948;2024-02-16T14:47:45;3.50;;;2.20;;
59872;SDS011;50750;51.636;4.948;2024-02-16T14:50:13;2.80;;;1.80;;
59872;SDS011;50750;51.636;4.948;2024-02-16T14:52:42;3.20;;;2.20;;
59872;SDS011;50750;51.636;4.948;2024-02-16T14:55:11;2.70;;;1.80;;
59872;SDS011;50750;51.636;4.948;2024-02-16T14:57:40;3.50;;;1.90;;
59872;SDS011;50750;51.636;4.948;2024-02-16T15:00:09;3.30;;;2.00;;
59872;SDS011;50750;51.636;4.948;2024-02-16T15:02:38;3.40;;;2.00;;